Hinckley, Minnesota
Current Conditions -  °F | °C
As of 12:44 PM on Thursday 30 Oct 2014 (Local Time) from K04W Reporting Station
Overcast Overcast  
Wind Chill: 39°   Ceiling: 4200
Heat Index: 39°   Visibility: 10mi
Dew Point: 34°   Wind: 0mph
Humidity: 81%   Direction: NA
Pressure: 30.11"   Gusts: NA
Location:  46.01°N, 92.94°W
Report Text: K04W 301744Z AUTO 00000KT 10SM SCT036 OVC042 04/01 A3011 RMK AO2
Loading
Personal Weather Stations






























Interactive Weather Map
Tropical Storm Tracking
New forecast layout! Learn more

10-Day Weather Forecast

Advertisements
Track Severe Weather on mobile